sensor_id;sensor_type;location;lat;lon;timestamp;P1;durP1;ratioP1;P2;durP2;ratioP2
83807;SDS011;73824;40.292;17.998;2024-02-15T00:01:40;12.18;;;1.58;;
83807;SDS011;73824;40.292;17.998;2024-02-15T00:04:07;10.10;;;1.40;;
83807;SDS011;73824;40.292;17.998;2024-02-15T00:06:32;8.00;;;1.23;;
83807;SDS011;73824;40.292;17.998;2024-02-15T00:08:58;10.77;;;1.53;;
83807;SDS011;73824;40.292;17.998;2024-02-15T00:11:23;8.87;;;1.50;;
83807;SDS011;73824;40.292;17.998;2024-02-15T00:13:49;8.77;;;1.50;;
83807;SDS011;73824;40.292;17.998;2024-02-15T00:16:14;14.27;;;2.83;;
83807;SDS011;73824;40.292;17.998;2024-02-15T00:18:40;12.50;;;1.73;;
83807;SDS011;73824;40.292;17.998;2024-02-15T00:21:05;12.57;;;1.80;;
83807;SDS011;73824;40.292;17.998;2024-02-15T00:23:31;11.32;;;1.52;;
83807;SDS011;73824;40.292;17.998;2024-02-15T00:25:57;12.25;;;1.73;;
83807;SDS011;73824;40.292;17.998;2024-02-15T00:28:23;13.47;;;2.50;;
83807;SDS011;73824;40.292;17.998;2024-02-15T00:30:49;12.90;;;1.85;;
83807;SDS011;73824;40.292;17.998;2024-02-15T00:33:15;11.23;;;1.60;;
83807;SDS011;73824;40.292;17.998;2024-02-15T00:35:41;8.47;;;1.40;;
83807;SDS011;73824;40.292;17.998;2024-02-15T00:38:07;12.82;;;1.48;;
83807;SDS011;73824;40.292;17.998;2024-02-15T00:40:32;8.77;;;1.80;;
83807;SDS011;73824;40.292;17.998;2024-02-15T00:42:58;10.43;;;1.70;;
83807;SDS011;73824;40.292;17.998;2024-02-15T00:45:23;10.75;;;1.63;;
83807;SDS011;73824;40.292;17.998;2024-02-15T00:47:49;9.37;;;1.43;;
83807;SDS011;73824;40.292;17.998;2024-02-15T00:50:15;8.63;;;1.10;;
83807;SDS011;73824;40.292;17.998;2024-02-15T00:52:41;9.27;;;1.47;;
83807;SDS011;73824;40.292;17.998;2024-02-15T00:55:06;8.15;;;1.55;;
83807;SDS011;73824;40.292;17.998;2024-02-15T00:57:32;12.00;;;1.53;;
83807;SDS011;73824;40.292;17.998;2024-02-15T00:59:57;11.27;;;1.30;;
83807;SDS011;73824;40.292;17.998;2024-02-15T01:02:24;9.32;;;1.60;;
83807;SDS011;73824;40.292;17.998;2024-02-15T01:04:50;12.27;;;1.50;;
83807;SDS011;73824;40.292;17.998;2024-02-15T01:07:17;8.23;;;1.30;;
83807;SDS011;73824;40.292;17.998;2024-02-15T01:09:43;14.38;;;1.52;;
83807;SDS011;73824;40.292;17.998;2024-02-15T01:12:10;12.57;;;2.03;;
83807;SDS011;73824;40.292;17.998;2024-02-15T01:14:36;11.93;;;1.63;;
83807;SDS011;73824;40.292;17.998;2024-02-15T01:17:02;15.47;;;2.63;;
83807;SDS011;73824;40.292;17.998;2024-02-15T01:19:27;12.65;;;1.58;;
83807;SDS011;73824;40.292;17.998;2024-02-15T01:21:53;8.70;;;1.43;;
83807;SDS011;73824;40.292;17.998;2024-02-15T01:24:18;8.53;;;1.40;;
83807;SDS011;73824;40.292;17.998;2024-02-15T01:26:44;7.35;;;1.40;;
83807;SDS011;73824;40.292;17.998;2024-02-15T01:29:09;12.07;;;1.30;;
83807;SDS011;73824;40.292;17.998;2024-02-15T01:31:37;7.15;;;1.40;;
83807;SDS011;73824;40.292;17.998;2024-02-15T01:34:03;9.25;;;1.40;;
83807;SDS011;73824;40.292;17.998;2024-02-15T01:36:29;8.43;;;1.63;;
83807;SDS011;73824;40.292;17.998;2024-02-15T01:38:55;10.85;;;1.42;;
83807;SDS011;73824;40.292;17.998;2024-02-15T01:41:21;10.67;;;2.10;;
83807;SDS011;73824;40.292;17.998;2024-02-15T01:43:47;8.48;;;1.70;;
83807;SDS011;73824;40.292;17.998;2024-02-15T01:46:13;10.00;;;1.67;;
83807;SDS011;73824;40.292;17.998;2024-02-15T01:48:40;8.00;;;1.33;;
83807;SDS011;73824;40.292;17.998;2024-02-15T01:51:07;10.77;;;1.90;;
83807;SDS011;73824;40.292;17.998;2024-02-15T01:53:35;10.45;;;1.98;;
83807;SDS011;73824;40.292;17.998;2024-02-15T01:56:00;8.27;;;1.53;;
83807;SDS011;73824;40.292;17.998;2024-02-15T01:58:27;9.43;;;1.48;;
83807;SDS011;73824;40.292;17.998;2024-02-15T02:00:53;9.13;;;1.50;;
83807;SDS011;73824;40.292;17.998;2024-02-15T02:03:21;8.73;;;1.42;;
83807;SDS011;73824;40.292;17.998;2024-02-15T02:05:47;9.63;;;1.80;;
83807;SDS011;73824;40.292;17.998;2024-02-15T02:08:12;10.35;;;1.80;;
83807;SDS011;73824;40.292;17.998;2024-02-15T02:10:38;8.68;;;1.50;;
83807;SDS011;73824;40.292;17.998;2024-02-15T02:13:04;7.90;;;1.60;;
83807;SDS011;73824;40.292;17.998;2024-02-15T02:15:33;11.20;;;2.13;;
83807;SDS011;73824;40.292;17.998;2024-02-15T02:18:02;8.20;;;1.50;;
83807;SDS011;73824;40.292;17.998;2024-02-15T02:20:32;10.95;;;1.40;;
83807;SDS011;73824;40.292;17.998;2024-02-15T02:23:09;8.23;;;1.30;;
83807;SDS011;73824;40.292;17.998;2024-02-15T02:25:39;9.55;;;1.33;;
83807;SDS011;73824;40.292;17.998;2024-02-15T02:28:07;8.77;;;1.40;;
83807;SDS011;73824;40.292;17.998;2024-02-15T02:30:33;7.97;;;1.30;;
83807;SDS011;73824;40.292;17.998;2024-02-15T02:32:59;9.30;;;1.35;;
83807;SDS011;73824;40.292;17.998;2024-02-15T02:35:26;9.80;;;1.30;;
83807;SDS011;73824;40.292;17.998;2024-02-15T02:37:55;6.72;;;1.33;;
83807;SDS011;73824;40.292;17.998;2024-02-15T02:40:21;9.67;;;2.03;;
83807;SDS011;73824;40.292;17.998;2024-02-15T02:42:54;7.25;;;1.42;;
83807;SDS011;73824;40.292;17.998;2024-02-15T02:45:26;11.85;;;1.80;;
83807;SDS011;73824;40.292;17.998;2024-02-15T02:47:55;7.53;;;1.50;;
83807;SDS011;73824;40.292;17.998;2024-02-15T02:50:21;10.23;;;1.80;;
83807;SDS011;73824;40.292;17.998;2024-02-15T02:52:47;8.95;;;1.80;;
83807;SDS011;73824;40.292;17.998;2024-02-15T02:55:13;9.43;;;1.77;;
83807;SDS011;73824;40.292;17.998;2024-02-15T02:57:39;8.57;;;1.42;;
83807;SDS011;73824;40.292;17.998;2024-02-15T03:00:05;10.18;;;1.25;;
83807;SDS011;73824;40.292;17.998;2024-02-15T03:02:41;8.05;;;1.58;;
83807;SDS011;73824;40.292;17.998;2024-02-15T03:05:08;8.25;;;1.40;;
83807;SDS011;73824;40.292;17.998;2024-02-15T03:07:35;10.63;;;1.75;;
83807;SDS011;73824;40.292;17.998;2024-02-15T03:10:02;10.65;;;1.90;;
83807;SDS011;73824;40.292;17.998;2024-02-15T03:12:29;7.90;;;1.70;;
83807;SDS011;73824;40.292;17.998;2024-02-15T03:14:55;7.80;;;1.40;;
83807;SDS011;73824;40.292;17.998;2024-02-15T03:17:22;8.55;;;1.90;;
83807;SDS011;73824;40.292;17.998;2024-02-15T03:19:51;9.07;;;1.57;;
83807;SDS011;73824;40.292;17.998;2024-02-15T03:22:16;8.73;;;1.55;;
83807;SDS011;73824;40.292;17.998;2024-02-15T03:24:42;8.63;;;1.63;;
83807;SDS011;73824;40.292;17.998;2024-02-15T03:27:08;13.40;;;1.85;;
83807;SDS011;73824;40.292;17.998;2024-02-15T03:29:35;12.10;;;1.40;;
83807;SDS011;73824;40.292;17.998;2024-02-15T03:32:01;14.27;;;2.42;;
83807;SDS011;73824;40.292;17.998;2024-02-15T03:34:29;10.88;;;1.80;;
83807;SDS011;73824;40.292;17.998;2024-02-15T03:36:56;9.52;;;2.05;;
83807;SDS011;73824;40.292;17.998;2024-02-15T03:39:22;12.17;;;1.83;;
83807;SDS011;73824;40.292;17.998;2024-02-15T03:41:48;6.22;;;1.50;;
83807;SDS011;73824;40.292;17.998;2024-02-15T03:44:14;7.22;;;1.50;;
83807;SDS011;73824;40.292;17.998;2024-02-15T03:46:40;9.30;;;1.40;;
83807;SDS011;73824;40.292;17.998;2024-02-15T03:49:05;9.30;;;1.42;;
83807;SDS011;73824;40.292;17.998;2024-02-15T03:51:33;9.53;;;2.30;;
83807;SDS011;73824;40.292;17.998;2024-02-15T03:53:59;9.10;;;1.90;;
83807;SDS011;73824;40.292;17.998;2024-02-15T03:56:25;12.68;;;3.15;;
83807;SDS011;73824;40.292;17.998;2024-02-15T03:58:51;10.88;;;2.53;;
83807;SDS011;73824;40.292;17.998;2024-02-15T04:01:16;9.07;;;1.88;;
83807;SDS011;73824;40.292;17.998;2024-02-15T04:03:42;12.20;;;1.83;;
83807;SDS011;73824;40.292;17.998;2024-02-15T04:06:07;10.63;;;2.47;;
83807;SDS011;73824;40.292;17.998;2024-02-15T04:08:35;13.52;;;1.90;;
83807;SDS011;73824;40.292;17.998;2024-02-15T04:11:04;7.05;;;1.90;;
83807;SDS011;73824;40.292;17.998;2024-02-15T04:13:31;9.88;;;1.80;;
83807;SDS011;73824;40.292;17.998;2024-02-15T04:15:57;10.30;;;2.00;;
83807;SDS011;73824;40.292;17.998;2024-02-15T04:18:23;8.17;;;2.10;;
83807;SDS011;73824;40.292;17.998;2024-02-15T04:20:48;9.05;;;2.20;;
83807;SDS011;73824;40.292;17.998;2024-02-15T04:23:14;11.47;;;1.97;;
83807;SDS011;73824;40.292;17.998;2024-02-15T04:25:39;12.77;;;1.97;;
83807;SDS011;73824;40.292;17.998;2024-02-15T04:28:06;9.40;;;1.83;;
83807;SDS011;73824;40.292;17.998;2024-02-15T04:30:33;11.65;;;2.10;;
83807;SDS011;73824;40.292;17.998;2024-02-15T04:33:00;9.75;;;2.10;;
83807;SDS011;73824;40.292;17.998;2024-02-15T04:35:25;9.60;;;1.90;;
83807;SDS011;73824;40.292;17.998;2024-02-15T04:37:52;8.93;;;1.85;;
83807;SDS011;73824;40.292;17.998;2024-02-15T04:40:18;10.77;;;1.87;;
83807;SDS011;73824;40.292;17.998;2024-02-15T04:42:44;9.18;;;2.17;;
83807;SDS011;73824;40.292;17.998;2024-02-15T04:45:12;10.57;;;2.28;;
83807;SDS011;73824;40.292;17.998;2024-02-15T04:47:40;11.05;;;2.90;;
83807;SDS011;73824;40.292;17.998;2024-02-15T04:50:06;10.35;;;2.10;;
83807;SDS011;73824;40.292;17.998;2024-02-15T04:52:32;10.70;;;2.37;;
83807;SDS011;73824;40.292;17.998;2024-02-15T04:54:58;9.73;;;2.45;;
83807;SDS011;73824;40.292;17.998;2024-02-15T04:57:26;11.90;;;2.70;;
83807;SDS011;73824;40.292;17.998;2024-02-15T04:59:55;11.85;;;3.53;;
83807;SDS011;73824;40.292;17.998;2024-02-15T05:02:20;12.50;;;3.90;;
83807;SDS011;73824;40.292;17.998;2024-02-15T05:04:49;12.90;;;2.83;;
83807;SDS011;73824;40.292;17.998;2024-02-15T05:07:20;11.93;;;2.70;;
83807;SDS011;73824;40.292;17.998;2024-02-15T05:09:47;11.45;;;2.40;;
83807;SDS011;73824;40.292;17.998;2024-02-15T05:12:21;11.65;;;2.63;;
83807;SDS011;73824;40.292;17.998;2024-02-15T05:14:47;11.50;;;2.70;;
83807;SDS011;73824;40.292;17.998;2024-02-15T05:17:13;9.80;;;2.45;;
83807;SDS011;73824;40.292;17.998;2024-02-15T05:19:39;10.00;;;3.03;;
83807;SDS011;73824;40.292;17.998;2024-02-15T05:22:04;7.82;;;2.25;;
83807;SDS011;73824;40.292;17.998;2024-02-15T05:24:31;9.95;;;2.20;;
83807;SDS011;73824;40.292;17.998;2024-02-15T05:26:56;9.83;;;2.20;;
83807;SDS011;73824;40.292;17.998;2024-02-15T05:29:22;10.10;;;1.90;;
83807;SDS011;73824;40.292;17.998;2024-02-15T05:31:48;10.35;;;2.72;;
83807;SDS011;73824;40.292;17.998;2024-02-15T05:34:16;14.90;;;2.67;;
83807;SDS011;73824;40.292;17.998;2024-02-15T05:36:42;13.13;;;3.27;;
83807;SDS011;73824;40.292;17.998;2024-02-15T05:39:08;10.68;;;2.47;;
83807;SDS011;73824;40.292;17.998;2024-02-15T05:41:36;11.30;;;3.37;;
83807;SDS011;73824;40.292;17.998;2024-02-15T05:44:02;13.80;;;4.72;;
83807;SDS011;73824;40.292;17.998;2024-02-15T05:46:32;14.60;;;4.63;;
83807;SDS011;73824;40.292;17.998;2024-02-15T05:49:01;16.30;;;5.25;;
83807;SDS011;73824;40.292;17.998;2024-02-15T05:51:27;14.57;;;4.07;;
83807;SDS011;73824;40.292;17.998;2024-02-15T05:53:52;12.65;;;3.75;;
83807;SDS011;73824;40.292;17.998;2024-02-15T05:56:23;10.57;;;3.47;;
83807;SDS011;73824;40.292;17.998;2024-02-15T05:58:48;12.60;;;3.60;;
83807;SDS011;73824;40.292;17.998;2024-02-15T06:01:14;15.20;;;4.27;;
83807;SDS011;73824;40.292;17.998;2024-02-15T06:03:40;14.37;;;3.63;;
83807;SDS011;73824;40.292;17.998;2024-02-15T06:06:06;14.20;;;3.80;;
83807;SDS011;73824;40.292;17.998;2024-02-15T06:08:32;13.23;;;4.03;;
83807;SDS011;73824;40.292;17.998;2024-02-15T06:10:59;13.90;;;4.10;;
83807;SDS011;73824;40.292;17.998;2024-02-15T06:13:24;16.55;;;4.78;;
83807;SDS011;73824;40.292;17.998;2024-02-15T06:15:51;14.13;;;3.90;;
83807;SDS011;73824;40.292;17.998;2024-02-15T06:18:20;12.30;;;3.27;;
83807;SDS011;73824;40.292;17.998;2024-02-15T06:20:49;14.57;;;3.92;;
83807;SDS011;73824;40.292;17.998;2024-02-15T06:23:15;12.48;;;3.92;;
83807;SDS011;73824;40.292;17.998;2024-02-15T06:25:42;11.60;;;3.90;;
83807;SDS011;73824;40.292;17.998;2024-02-15T06:28:07;12.50;;;3.80;;
83807;SDS011;73824;40.292;17.998;2024-02-15T06:30:52;11.63;;;3.17;;
83807;SDS011;73824;40.292;17.998;2024-02-15T06:33:35;11.60;;;3.42;;
83807;SDS011;73824;40.292;17.998;2024-02-15T06:36:19;12.15;;;4.07;;
83807;SDS011;73824;40.292;17.998;2024-02-15T06:39:03;10.10;;;2.70;;
83807;SDS011;73824;40.292;17.998;2024-02-15T06:41:47;10.67;;;2.50;;
83807;SDS011;73824;40.292;17.998;2024-02-15T06:44:13;10.27;;;2.63;;
83807;SDS011;73824;40.292;17.998;2024-02-15T06:46:39;9.73;;;2.60;;
83807;SDS011;73824;40.292;17.998;2024-02-15T06:49:04;16.00;;;2.78;;
83807;SDS011;73824;40.292;17.998;2024-02-15T06:51:30;10.33;;;3.40;;
83807;SDS011;73824;40.292;17.998;2024-02-15T06:53:55;13.33;;;3.53;;
83807;SDS011;73824;40.292;17.998;2024-02-15T06:56:21;15.10;;;4.75;;
83807;SDS011;73824;40.292;17.998;2024-02-15T06:58:47;18.65;;;4.13;;
83807;SDS011;73824;40.292;17.998;2024-02-15T07:01:14;12.75;;;3.53;;
83807;SDS011;73824;40.292;17.998;2024-02-15T07:03:41;13.70;;;4.18;;
83807;SDS011;73824;40.292;17.998;2024-02-15T07:06:09;8.90;;;4.07;;
83807;SDS011;73824;40.292;17.998;2024-02-15T07:08:35;10.60;;;3.37;;
83807;SDS011;73824;40.292;17.998;2024-02-15T07:11:00;10.70;;;3.42;;
83807;SDS011;73824;40.292;17.998;2024-02-15T07:13:28;8.87;;;3.13;;
83807;SDS011;73824;40.292;17.998;2024-02-15T07:15:54;10.60;;;3.95;;
83807;SDS011;73824;40.292;17.998;2024-02-15T07:18:19;10.80;;;3.70;;
83807;SDS011;73824;40.292;17.998;2024-02-15T07:20:47;11.23;;;3.53;;
83807;SDS011;73824;40.292;17.998;2024-02-15T07:23:13;9.57;;;4.93;;
83807;SDS011;73824;40.292;17.998;2024-02-15T07:25:39;15.90;;;5.80;;
83807;SDS011;73824;40.292;17.998;2024-02-15T07:28:05;12.10;;;6.38;;
83807;SDS011;73824;40.292;17.998;2024-02-15T07:30:32;13.18;;;6.60;;
83807;SDS011;73824;40.292;17.998;2024-02-15T07:32:57;12.00;;;5.80;;
83807;SDS011;73824;40.292;17.998;2024-02-15T07:35:23;16.65;;;5.45;;
83807;SDS011;73824;40.292;17.998;2024-02-15T07:37:53;15.67;;;7.57;;
83807;SDS011;73824;40.292;17.998;2024-02-15T07:40:23;11.27;;;6.40;;
83807;SDS011;73824;40.292;17.998;2024-02-15T07:42:53;10.80;;;6.65;;
83807;SDS011;73824;40.292;17.998;2024-02-15T07:45:20;12.73;;;6.05;;
83807;SDS011;73824;40.292;17.998;2024-02-15T07:47:45;13.57;;;6.13;;
83807;SDS011;73824;40.292;17.998;2024-02-15T07:50:11;13.80;;;6.17;;
83807;SDS011;73824;40.292;17.998;2024-02-15T07:52:44;11.50;;;6.10;;
83807;SDS011;73824;40.292;17.998;2024-02-15T07:55:09;12.30;;;6.07;;
83807;SDS011;73824;40.292;17.998;2024-02-15T07:57:35;11.97;;;5.33;;
83807;SDS011;73824;40.292;17.998;2024-02-15T08:00:00;9.47;;;5.03;;
83807;SDS011;73824;40.292;17.998;2024-02-15T08:02:26;10.20;;;6.37;;
83807;SDS011;73824;40.292;17.998;2024-02-15T08:04:53;11.10;;;7.13;;
83807;SDS011;73824;40.292;17.998;2024-02-15T08:07:19;9.75;;;5.47;;
83807;SDS011;73824;40.292;17.998;2024-02-15T08:09:46;9.82;;;5.43;;
83807;SDS011;73824;40.292;17.998;2024-02-15T08:12:11;10.35;;;5.53;;
83807;SDS011;73824;40.292;17.998;2024-02-15T08:14:37;11.47;;;7.17;;
83807;SDS011;73824;40.292;17.998;2024-02-15T08:17:05;10.18;;;5.80;;
83807;SDS011;73824;40.292;17.998;2024-02-15T08:19:33;8.27;;;3.97;;
83807;SDS011;73824;40.292;17.998;2024-02-15T08:22:03;9.05;;;4.07;;
83807;SDS011;73824;40.292;17.998;2024-02-15T08:24:30;8.05;;;4.05;;
83807;SDS011;73824;40.292;17.998;2024-02-15T08:26:55;8.27;;;3.53;;
83807;SDS011;73824;40.292;17.998;2024-02-15T08:29:24;8.25;;;2.97;;
83807;SDS011;73824;40.292;17.998;2024-02-15T08:31:49;8.77;;;3.40;;
83807;SDS011;73824;40.292;17.998;2024-02-15T08:34:15;8.83;;;3.23;;
83807;SDS011;73824;40.292;17.998;2024-02-15T08:36:43;6.97;;;2.40;;
83807;SDS011;73824;40.292;17.998;2024-02-15T08:39:09;6.80;;;2.40;;
83807;SDS011;73824;40.292;17.998;2024-02-15T08:41:37;8.85;;;3.25;;
83807;SDS011;73824;40.292;17.998;2024-02-15T08:44:04;8.15;;;3.90;;
83807;SDS011;73824;40.292;17.998;2024-02-15T08:46:36;7.80;;;3.10;;
83807;SDS011;73824;40.292;17.998;2024-02-15T08:49:02;7.20;;;2.30;;
83807;SDS011;73824;40.292;17.998;2024-02-15T08:51:28;7.28;;;2.45;;
83807;SDS011;73824;40.292;17.998;2024-02-15T08:53:55;7.25;;;2.28;;
83807;SDS011;73824;40.292;17.998;2024-02-15T08:56:21;7.82;;;3.40;;
83807;SDS011;73824;40.292;17.998;2024-02-15T08:58:48;8.05;;;2.33;;
83807;SDS011;73824;40.292;17.998;2024-02-15T09:01:14;7.03;;;2.58;;
83807;SDS011;73824;40.292;17.998;2024-02-15T09:03:39;8.10;;;2.90;;
83807;SDS011;73824;40.292;17.998;2024-02-15T09:06:05;12.98;;;6.80;;
83807;SDS011;73824;40.292;17.998;2024-02-15T09:08:32;14.40;;;5.35;;
83807;SDS011;73824;40.292;17.998;2024-02-15T09:10:58;8.43;;;2.45;;
83807;SDS011;73824;40.292;17.998;2024-02-15T09:13:24;7.68;;;2.40;;
83807;SDS011;73824;40.292;17.998;2024-02-15T09:15:49;9.53;;;2.77;;
83807;SDS011;73824;40.292;17.998;2024-02-15T09:18:15;6.80;;;2.53;;
83807;SDS011;73824;40.292;17.998;2024-02-15T09:20:43;11.55;;;4.85;;
83807;SDS011;73824;40.292;17.998;2024-02-15T09:23:10;9.68;;;3.15;;
83807;SDS011;73824;40.292;17.998;2024-02-15T09:25:40;11.65;;;2.20;;
83807;SDS011;73824;40.292;17.998;2024-02-15T09:28:09;7.50;;;2.47;;
83807;SDS011;73824;40.292;17.998;2024-02-15T09:30:35;7.77;;;1.77;;
83807;SDS011;73824;40.292;17.998;2024-02-15T09:33:01;6.70;;;2.40;;
83807;SDS011;73824;40.292;17.998;2024-02-15T09:35:30;7.88;;;2.42;;
83807;SDS011;73824;40.292;17.998;2024-02-15T09:37:56;8.88;;;2.60;;
83807;SDS011;73824;40.292;17.998;2024-02-15T09:40:21;6.88;;;2.05;;
83807;SDS011;73824;40.292;17.998;2024-02-15T09:42:51;7.95;;;2.53;;
83807;SDS011;73824;40.292;17.998;2024-02-15T09:45:17;7.07;;;2.40;;
83807;SDS011;73824;40.292;17.998;2024-02-15T09:47:45;8.30;;;2.00;;
83807;SDS011;73824;40.292;17.998;2024-02-15T09:50:12;6.32;;;1.80;;
83807;SDS011;73824;40.292;17.998;2024-02-15T09:52:39;6.90;;;2.35;;
83807;SDS011;73824;40.292;17.998;2024-02-15T09:55:06;7.50;;;2.20;;
83807;SDS011;73824;40.292;17.998;2024-02-15T09:57:38;6.43;;;1.73;;
83807;SDS011;73824;40.292;17.998;2024-02-15T10:00:04;6.13;;;1.55;;
83807;SDS011;73824;40.292;17.998;2024-02-15T10:02:35;6.45;;;1.67;;
83807;SDS011;73824;40.292;17.998;2024-02-15T10:05:01;6.68;;;2.00;;
83807;SDS011;73824;40.292;17.998;2024-02-15T10:07:27;7.53;;;2.00;;
83807;SDS011;73824;40.292;17.998;2024-02-15T10:09:53;7.75;;;1.73;;
83807;SDS011;73824;40.292;17.998;2024-02-15T10:12:19;6.30;;;1.60;;
83807;SDS011;73824;40.292;17.998;2024-02-15T10:14:51;6.03;;;1.13;;
83807;SDS011;73824;40.292;17.998;2024-02-15T10:17:20;5.90;;;1.55;;
83807;SDS011;73824;40.292;17.998;2024-02-15T10:20:02;14.48;;;4.20;;
83807;SDS011;73824;40.292;17.998;2024-02-15T10:22:28;11.55;;;3.55;;
83807;SDS011;73824;40.292;17.998;2024-02-15T10:25:09;5.90;;;0.93;;
83807;SDS011;73824;40.292;17.998;2024-02-15T10:27:36;4.05;;;1.00;;
83807;SDS011;73824;40.292;17.998;2024-02-15T10:30:19;7.60;;;0.80;;
83807;SDS011;73824;40.292;17.998;2024-02-15T10:32:45;6.60;;;1.03;;
83807;SDS011;73824;40.292;17.998;2024-02-15T10:35:21;7.05;;;1.52;;
83807;SDS011;73824;40.292;17.998;2024-02-15T10:37:51;6.50;;;1.10;;
83807;SDS011;73824;40.292;17.998;2024-02-15T10:40:18;7.40;;;1.27;;
83807;SDS011;73824;40.292;17.998;2024-02-15T10:42:45;6.55;;;2.10;;
83807;SDS011;73824;40.292;17.998;2024-02-15T10:45:15;11.20;;;1.50;;
83807;SDS011;73824;40.292;17.998;2024-02-15T10:47:44;7.50;;;1.23;;
83807;SDS011;73824;40.292;17.998;2024-02-15T10:50:11;6.75;;;1.35;;
83807;SDS011;73824;40.292;17.998;2024-02-15T10:52:40;6.65;;;1.15;;
83807;SDS011;73824;40.292;17.998;2024-02-15T10:55:13;11.75;;;4.75;;
83807;SDS011;73824;40.292;17.998;2024-02-15T10:57:51;6.13;;;1.17;;
83807;SDS011;73824;40.292;17.998;2024-02-15T11:00:17;7.38;;;1.10;;
83807;SDS011;73824;40.292;17.998;2024-02-15T11:05:31;5.80;;;1.48;;
83807;SDS011;73824;40.292;17.998;2024-02-15T11:08:00;13.40;;;3.85;;
83807;SDS011;73824;40.292;17.998;2024-02-15T11:10:29;12.07;;;3.50;;
83807;SDS011;73824;40.292;17.998;2024-02-15T11:12:55;7.20;;;1.38;;
83807;SDS011;73824;40.292;17.998;2024-02-15T11:18:02;7.88;;;1.48;;
83807;SDS011;73824;40.292;17.998;2024-02-15T11:22:59;10.47;;;2.63;;
83807;SDS011;73824;40.292;17.998;2024-02-15T11:25:32;7.32;;;2.30;;
83807;SDS011;73824;40.292;17.998;2024-02-15T11:30:46;6.75;;;2.22;;
83807;SDS011;73824;40.292;17.998;2024-02-15T11:33:23;6.37;;;1.40;;
83807;SDS011;73824;40.292;17.998;2024-02-15T11:36:03;9.85;;;1.35;;
83807;SDS011;73824;40.292;17.998;2024-02-15T11:38:31;8.07;;;1.60;;
83807;SDS011;73824;40.292;17.998;2024-02-15T11:41:04;6.70;;;1.55;;
83807;SDS011;73824;40.292;17.998;2024-02-15T11:46:12;6.00;;;1.40;;
83807;SDS011;73824;40.292;17.998;2024-02-15T11:48:38;7.05;;;1.88;;
83807;SDS011;73824;40.292;17.998;2024-02-15T11:51:04;4.45;;;1.00;;
83807;SDS011;73824;40.292;17.998;2024-02-15T11:53:32;4.65;;;0.95;;
83807;SDS011;73824;40.292;17.998;2024-02-15T11:56:01;9.75;;;2.90;;
83807;SDS011;73824;40.292;17.998;2024-02-15T11:58:27;11.55;;;2.28;;
83807;SDS011;73824;40.292;17.998;2024-02-15T12:01:10;6.85;;;1.77;;
83807;SDS011;73824;40.292;17.998;2024-02-15T12:03:55;8.25;;;2.05;;
83807;SDS011;73824;40.292;17.998;2024-02-15T12:06:39;6.78;;;1.23;;
83807;SDS011;73824;40.292;17.998;2024-02-15T12:09:24;5.95;;;0.90;;
83807;SDS011;73824;40.292;17.998;2024-02-15T12:12:11;4.32;;;0.95;;
83807;SDS011;73824;40.292;17.998;2024-02-15T12:14:59;4.15;;;0.80;;
83807;SDS011;73824;40.292;17.998;2024-02-15T12:17:43;5.28;;;1.05;;
83807;SDS011;73824;40.292;17.998;2024-02-15T12:20:27;5.63;;;0.90;;
83807;SDS011;73824;40.292;17.998;2024-02-15T12:22:53;4.43;;;0.85;;
83807;SDS011;73824;40.292;17.998;2024-02-15T12:25:20;4.43;;;0.82;;
83807;SDS011;73824;40.292;17.998;2024-02-15T12:27:53;4.93;;;0.80;;
83807;SDS011;73824;40.292;17.998;2024-02-15T12:30:20;4.43;;;0.77;;
83807;SDS011;73824;40.292;17.998;2024-02-15T12:32:49;4.05;;;0.90;;
83807;SDS011;73824;40.292;17.998;2024-02-15T12:35:16;6.50;;;0.90;;
83807;SDS011;73824;40.292;17.998;2024-02-15T12:37:47;5.78;;;1.05;;
83807;SDS011;73824;40.292;17.998;2024-02-15T12:40:16;5.93;;;0.77;;
83807;SDS011;73824;40.292;17.998;2024-02-15T12:42:43;5.22;;;1.20;;
83807;SDS011;73824;40.292;17.998;2024-02-15T12:45:16;8.77;;;1.30;;
83807;SDS011;73824;40.292;17.998;2024-02-15T12:47:51;6.45;;;1.30;;
83807;SDS011;73824;40.292;17.998;2024-02-15T12:50:18;6.20;;;1.20;;
83807;SDS011;73824;40.292;17.998;2024-02-15T12:52:47;5.95;;;1.30;;
83807;SDS011;73824;40.292;17.998;2024-02-15T12:55:16;5.43;;;1.23;;
83807;SDS011;73824;40.292;17.998;2024-02-15T12:57:45;5.75;;;1.15;;
83807;SDS011;73824;40.292;17.998;2024-02-15T13:00:20;4.38;;;1.13;;
83807;SDS011;73824;40.292;17.998;2024-02-15T13:02:47;6.57;;;1.20;;
83807;SDS011;73824;40.292;17.998;2024-02-15T13:05:18;6.07;;;1.30;;
83807;SDS011;73824;40.292;17.998;2024-02-15T13:07:44;5.65;;;1.45;;
83807;SDS011;73824;40.292;17.998;2024-02-15T13:10:11;5.07;;;1.30;;
83807;SDS011;73824;40.292;17.998;2024-02-15T13:12:39;5.95;;;0.90;;
83807;SDS011;73824;40.292;17.998;2024-02-15T13:15:06;4.88;;;0.77;;
83807;SDS011;73824;40.292;17.998;2024-02-15T13:17:36;6.28;;;0.88;;
83807;SDS011;73824;40.292;17.998;2024-02-15T13:20:03;5.80;;;0.90;;
83807;SDS011;73824;40.292;17.998;2024-02-15T13:22:36;6.80;;;1.40;;
83807;SDS011;73824;40.292;17.998;2024-02-15T13:25:04;6.70;;;1.48;;
83807;SDS011;73824;40.292;17.998;2024-02-15T13:27:32;3.72;;;0.80;;
83807;SDS011;73824;40.292;17.998;2024-02-15T13:29:58;4.25;;;0.70;;
83807;SDS011;73824;40.292;17.998;2024-02-15T13:32:23;7.17;;;1.20;;
83807;SDS011;73824;40.292;17.998;2024-02-15T13:34:49;6.27;;;0.93;;
83807;SDS011;73824;40.292;17.998;2024-02-15T13:37:19;4.70;;;1.00;;
83807;SDS011;73824;40.292;17.998;2024-02-15T13:39:48;4.90;;;0.80;;
83807;SDS011;73824;40.292;17.998;2024-02-15T13:42:14;4.20;;;0.70;;
83807;SDS011;73824;40.292;17.998;2024-02-15T13:44:42;4.60;;;0.70;;
83807;SDS011;73824;40.292;17.998;2024-02-15T13:47:08;5.40;;;0.82;;
83807;SDS011;73824;40.292;17.998;2024-02-15T13:49:33;5.32;;;1.15;;
83807;SDS011;73824;40.292;17.998;2024-02-15T13:52:00;5.67;;;0.80;;
83807;SDS011;73824;40.292;17.998;2024-02-15T13:54:32;5.72;;;0.90;;
83807;SDS011;73824;40.292;17.998;2024-02-15T13:56:59;5.35;;;1.20;;
83807;SDS011;73824;40.292;17.998;2024-02-15T13:59:26;5.10;;;0.80;;
83807;SDS011;73824;40.292;17.998;2024-02-15T14:01:53;6.50;;;1.00;;
83807;SDS011;73824;40.292;17.998;2024-02-15T14:04:18;5.80;;;0.98;;
83807;SDS011;73824;40.292;17.998;2024-02-15T14:06:45;7.45;;;1.20;;
83807;SDS011;73824;40.292;17.998;2024-02-15T14:09:12;5.47;;;0.90;;
83807;SDS011;73824;40.292;17.998;2024-02-15T14:11:38;4.13;;;0.90;;
83807;SDS011;73824;40.292;17.998;2024-02-15T14:14:05;5.57;;;0.93;;
83807;SDS011;73824;40.292;17.998;2024-02-15T14:16:31;5.00;;;0.95;;
83807;SDS011;73824;40.292;17.998;2024-02-15T14:18:58;4.85;;;0.98;;
83807;SDS011;73824;40.292;17.998;2024-02-15T14:21:24;4.30;;;0.85;;
83807;SDS011;73824;40.292;17.998;2024-02-15T14:23:50;4.45;;;0.80;;
83807;SDS011;73824;40.292;17.998;2024-02-15T14:26:16;4.87;;;0.70;;
83807;SDS011;73824;40.292;17.998;2024-02-15T14:28:42;4.32;;;0.90;;
83807;SDS011;73824;40.292;17.998;2024-02-15T14:31:10;5.13;;;0.85;;
83807;SDS011;73824;40.292;17.998;2024-02-15T14:33:54;6.75;;;1.23;;
83807;SDS011;73824;40.292;17.998;2024-02-15T14:36:20;7.87;;;1.40;;
83807;SDS011;73824;40.292;17.998;2024-02-15T14:38:46;5.75;;;1.00;;
83807;SDS011;73824;40.292;17.998;2024-02-15T14:41:14;6.13;;;1.30;;
83807;SDS011;73824;40.292;17.998;2024-02-15T14:43:41;7.17;;;0.90;;
83807;SDS011;73824;40.292;17.998;2024-02-15T14:46:06;10.20;;;1.30;;